Time;durP1;ratioP1;P1;durP2;ratioP2;P2;SDS_P1;SDS_P2;PMS_P1;PMS_P2;Temp;Humidity;BMP_temperature;BMP_pressure;BME280_temperature;BME280_humidity;BME280_pressure;Samples;Min_cycle;Max_cycle;Signal;HPM_P1;HPM_P2
2020/12/07 00:01:16;;;;;;;160.15;46.88;;;;;;;4.00;100.00;99261.19;5064745;28;20049;-85
2020/12/07 00:03:42;;;;;;;160.38;46.05;;;;;;;4.00;100.00;99253.22;5032856;28;20088;-83
2020/12/07 00:06:08;;;;;;;169.40;47.05;;;;;;;4.00;100.00;99251.41;5021914;28;20088;-85
2020/12/07 00:08:33;;;;;;;169.80;46.17;;;;;;;4.02;100.00;99256.56;5012594;28;20038;-83
2020/12/07 00:10:58;;;;;;;164.25;45.88;;;;;;;4.02;100.00;99256.56;5015884;28;20435;-83
2020/12/07 00:13:25;;;;;;;169.63;48.70;;;;;;;4.01;100.00;99261.03;5029729;28;20045;-83
2020/12/07 00:15:50;;;;;;;152.05;45.22;;;;;;;4.02;100.00;99259.19;5009683;28;20044;-83
2020/12/07 00:18:16;;;;;;;140.25;42.88;;;;;;;4.03;100.00;99274.16;5041608;28;20317;-84
2020/12/07 00:20:41;;;;;;;140.82;40.20;;;;;;;4.01;100.00;99274.31;5047416;28;20086;-84
2020/12/07 00:23:10;;;;;;;160.65;45.83;;;;;;;4.01;100.00;99278.78;5049518;28;20045;-83
2020/12/07 00:25:35;;;;;;;154.77;45.00;;;;;;;4.00;100.00;99279.75;5045779;28;20038;-83
2020/12/07 00:28:01;;;;;;;167.88;46.40;;;;;;;3.99;100.00;99264.84;5031003;28;20033;-85
2020/12/07 00:30:26;;;;;;;156.52;43.38;;;;;;;4.03;100.00;99261.72;5052511;28;20132;-85
2020/12/07 00:32:52;;;;;;;173.18;44.75;;;;;;;4.03;100.00;99253.75;5029309;28;20110;-84
2020/12/07 00:35:17;;;;;;;137.90;39.75;;;;;;;4.01;100.00;99244.28;5046045;28;20047;-83
2020/12/07 00:37:42;;;;;;;176.35;45.83;;;;;;;4.02;100.00;99243.28;5035019;28;20041;-84
2020/12/07 00:40:08;;;;;;;147.05;43.10;;;;;;;4.04;100.00;99236.81;5045404;28;20052;-84
2020/12/07 00:42:34;;;;;;;144.70;43.20;;;;;;;4.04;100.00;99233.34;5030816;28;20065;-83
2020/12/07 00:45:00;;;;;;;147.50;44.42;;;;;;;4.04;100.00;99228.03;5046543;28;20119;-85
2020/12/07 00:47:25;;;;;;;189.82;49.30;;;;;;;4.05;100.00;99229.69;5057379;28;20128;-83
2020/12/07 00:49:52;;;;;;;161.45;41.83;;;;;;;4.02;100.00;99236.13;5031677;28;20041;-84
2020/12/07 00:52:17;;;;;;;144.23;39.97;;;;;;;4.02;100.00;99243.28;5011864;28;20297;-84
2020/12/07 00:54:42;;;;;;;148.80;37.78;;;;;;;4.00;100.00;99238.16;5023094;28;20120;-84
2020/12/07 00:57:08;;;;;;;149.95;42.67;;;;;;;4.01;100.00;99237.16;5024889;28;20127;-84
2020/12/07 00:59:33;;;;;;;182.73;46.15;;;;;;;4.02;100.00;99237.97;5029169;28;20033;-85
2020/12/07 01:01:59;;;;;;;145.05;41.55;;;;;;;4.01;100.00;99234.47;5050258;28;20135;-84
2020/12/07 01:04:25;;;;;;;123.53;38.38;;;;;;;4.01;100.00;99246.94;5061250;28;20029;-82
2020/12/07 01:06:51;;;;;;;130.95;39.03;;;;;;;4.01;100.00;99250.41;5047383;28;20091;-84
2020/12/07 01:09:21;;;;;;;124.55;39.47;;;;;;;4.03;100.00;99259.06;5033402;28;20040;-83
2020/12/07 01:11:54;;;;;;;109.93;32.70;;;;;;;4.02;100.00;99256.56;5048825;28;20120;-85
2020/12/07 01:14:21;;;;;;;95.18;32.70;;;;;;;4.01;100.00;99244.28;5045597;28;20542;-83
2020/12/07 01:16:46;;;;;;;122.25;38.22;;;;;;;4.04;100.00;99244.78;5030913;28;20052;-85
2020/12/07 01:19:12;;;;;;;113.15;36.60;;;;;;;4.03;100.00;99242.31;5033457;28;20490;-85
2020/12/07 01:21:37;;;;;;;104.90;32.85;;;;;;;4.02;100.00;99244.09;5049376;28;20049;-84
2020/12/07 01:24:03;;;;;;;102.75;31.85;;;;;;;4.01;100.00;99229.19;5048405;28;20047;-83
2020/12/07 01:26:30;;;;;;;90.88;30.58;;;;;;;4.02;100.00;99228.19;5064634;28;20080;-83
2020/12/07 01:28:59;;;;;;;98.57;31.40;;;;;;;4.03;100.00;99224.56;5047169;28;20151;-84
2020/12/07 01:31:25;;;;;;;100.47;32.28;;;;;;;4.03;100.00;99221.91;5046824;28;20044;-82
2020/12/07 01:33:51;;;;;;;89.80;29.33;;;;;;;4.02;100.00;99209.59;5048804;28;20405;-84
2020/12/07 01:36:16;;;;;;;78.30;26.02;;;;;;;4.02;100.00;99211.41;5043152;28;20058;-84
2020/12/07 01:38:42;;;;;;;82.47;27.30;;;;;;;4.03;100.00;99216.59;5046965;28;20049;-84
2020/12/07 01:41:08;;;;;;;84.78;27.35;;;;;;;4.04;100.00;99222.72;5047010;28;20036;-83
2020/12/07 01:43:34;;;;;;;91.07;28.95;;;;;;;4.04;100.00;99214.75;5048654;28;20140;-84
2020/12/07 01:46:00;;;;;;;84.90;31.15;;;;;;;4.05;100.00;99217.22;5047805;28;20473;-83
2020/12/07 01:48:26;;;;;;;77.22;26.42;;;;;;;4.06;100.00;99220.75;5048257;28;20033;-84
2020/12/07 01:50:53;;;;;;;73.28;24.45;;;;;;;4.05;100.00;99213.75;5046963;28;20119;-82
2020/12/07 01:53:22;;;;;;;82.68;27.17;;;;;;;4.08;100.00;99208.13;5046377;28;20087;-83
2020/12/07 01:55:53;;;;;;;82.18;27.90;;;;;;;4.08;100.00;99213.44;5045663;28;20496;-84
2020/12/07 01:58:19;;;;;;;75.13;27.70;;;;;;;4.09;100.00;99225.72;5060150;28;20040;-84
2020/12/07 02:00:45;;;;;;;84.65;27.33;;;;;;;4.08;100.00;99216.09;5048380;28;20124;-83
2020/12/07 02:03:10;;;;;;;73.15;24.85;;;;;;;4.08;100.00;99202.81;5043606;28;20393;-83
2020/12/07 02:05:40;;;;;;;76.32;26.40;;;;;;;4.09;100.00;99188.56;5047689;28;20044;-86
2020/12/07 02:08:23;;;;;;;;;;;;;;;4.09;100.00;99185.91;5048755;28;20048;-83
2020/12/07 02:10:49;;;;;;;72.20;23.80;;;;;;;4.01;100.00;99177.91;5034044;28;20458;-82
2020/12/07 02:13:14;;;;;;;61.75;21.75;;;;;;;4.01;100.00;99181.41;5032220;28;20041;-83
2020/12/07 02:15:41;;;;;;;64.93;22.98;;;;;;;4.04;100.00;99181.06;5044153;28;20060;-82
2020/12/07 02:18:07;;;;;;;71.95;24.90;;;;;;;4.07;100.00;99170.13;5045296;28;20040;-83
2020/12/07 02:20:35;;;;;;;61.00;22.33;;;;;;;4.09;100.00;99169.16;5059154;28;20117;-86
2020/12/07 02:23:01;;;;;;;65.82;22.35;;;;;;;4.11;100.00;99170.63;5049985;28;20036;-85
2020/12/07 02:25:26;;;;;;;56.75;20.05;;;;;;;4.12;100.00;99163.53;5061908;28;20043;-85
2020/12/07 02:27:52;;;;;;;69.07;23.48;;;;;;;4.12;100.00;99167.00;5030024;28;20450;-84
2020/12/07 02:30:20;;;;;;;50.58;19.48;;;;;;;4.13;100.00;99170.47;5046572;28;20457;-83
2020/12/07 02:32:47;;;;;;;47.40;19.35;;;;;;;4.13;100.00;99171.31;5041315;28;20060;-84
2020/12/07 02:35:16;;;;;;;49.95;18.38;;;;;;;4.13;100.00;99168.66;5057439;28;20430;-84
2020/12/07 02:37:42;;;;;;;45.72;16.23;;;;;;;4.12;100.00;99159.03;5043140;28;20060;-86
2020/12/07 02:40:09;;;;;;;40.05;15.73;;;;;;;4.12;100.00;99155.56;5043494;28;20115;-84
2020/12/07 02:42:36;;;;;;;42.58;18.20;;;;;;;4.14;100.00;99159.69;5047503;28;20569;-84
2020/12/07 02:45:15;;;;;;;35.65;14.25;;;;;;;4.12;100.00;99151.06;5038615;28;20505;-85
2020/12/07 02:47:41;;;;;;;;;;;;;;;4.15;100.00;99149.91;5039868;28;20405;-84
2020/12/07 02:50:07;;;;;;;31.77;12.93;;;;;;;4.04;100.00;99137.78;5048422;28;19912;-84
2020/12/07 02:52:33;;;;;;;36.70;14.85;;;;;;;4.06;100.00;99135.81;5031688;28;20029;-82
2020/12/07 02:55:03;;;;;;;34.47;13.05;;;;;;;4.06;100.00;99136.63;5053144;28;20047;-85
2020/12/07 02:57:29;;;;;;;34.90;13.15;;;;;;;4.09;100.00;99134.66;5061773;28;20359;-84
2020/12/07 02:59:54;;;;;;;33.90;13.40;;;;;;;4.09;100.00;99124.84;5045836;28;20048;-83
2020/12/07 03:02:20;;;;;;;35.42;13.73;;;;;;;4.09;100.00;99124.84;5051572;28;20110;-84
2020/12/07 03:04:46;;;;;;;29.77;12.57;;;;;;;4.10;100.00;99125.69;5050237;28;20043;-83
2020/12/07 03:07:12;;;;;;;30.13;12.32;;;;;;;4.10;100.00;99129.16;5035828;28;20491;-85
2020/12/07 03:09:38;;;;;;;33.65;13.48;;;;;;;4.12;100.00;99131.66;5052133;28;20491;-84
2020/12/07 03:12:04;;;;;;;32.88;11.70;;;;;;;4.10;100.00;99125.69;5051480;28;20049;-83
2020/12/07 03:14:30;;;;;;;28.58;13.35;;;;;;;4.09;100.00;99127.50;5045820;28;20051;-84
2020/12/07 03:16:55;;;;;;;32.50;13.38;;;;;;;4.12;100.00;99123.69;5048013;28;20558;-84
2020/12/07 03:19:21;;;;;;;30.85;12.38;;;;;;;4.12;100.00;99129.84;5051793;28;20398;-84
2020/12/07 03:21:47;;;;;;;31.58;12.50;;;;;;;4.11;100.00;99133.47;5065815;28;20487;-85
2020/12/07 03:24:12;;;;;;;29.30;12.38;;;;;;;4.11;100.00;99128.16;5052980;28;20398;-86
2020/12/07 03:26:44;;;;;;;32.90;13.20;;;;;;;4.12;100.00;99127.19;5063231;28;20499;-83
2020/12/07 03:29:10;;;;;;;30.35;10.93;;;;;;;4.10;100.00;99126.50;5044151;28;20060;-84
2020/12/07 03:31:38;;;;;;;30.30;11.82;;;;;;;4.09;100.00;99130.16;5049345;28;20065;-85
2020/12/07 03:34:05;;;;;;;32.45;11.85;;;;;;;4.10;100.00;99129.16;5044407;28;20582;-84
2020/12/07 03:36:30;;;;;;;31.00;11.82;;;;;;;4.11;100.00;99133.47;5065430;28;20040;-84
2020/12/07 03:38:56;;;;;;;30.77;12.27;;;;;;;4.11;100.00;99128.16;5051286;28;20466;-83
2020/12/07 03:41:22;;;;;;;28.35;11.50;;;;;;;4.13;100.00;99125.34;5049996;28;20052;-83
2020/12/07 03:43:48;;;;;;;32.97;12.38;;;;;;;4.12;100.00;99129.84;5064711;28;20041;-85
2020/12/07 03:46:14;;;;;;;31.17;12.10;;;;;;;4.11;100.00;99132.63;5049568;28;20124;-83
2020/12/07 03:48:39;;;;;;;30.77;13.57;;;;;;;4.12;100.00;99135.16;5049331;28;20078;-85
2020/12/07 03:51:05;;;;;;;32.33;12.80;;;;;;;4.11;100.00;99129.97;5052162;28;20061;-86
2020/12/07 03:53:35;;;;;;;33.28;12.55;;;;;;;4.10;100.00;99137.13;5050346;28;20041;-85
2020/12/07 03:56:01;;;;;;;32.90;13.50;;;;;;;4.10;100.00;99123.84;5057580;28;20049;-85
2020/12/07 03:58:26;;;;;;;35.13;13.63;;;;;;;4.11;100.00;99119.38;5045694;28;20098;-84
2020/12/07 04:00:52;;;;;;;32.60;13.73;;;;;;;4.11;100.00;99120.19;5033773;28;20423;-84
2020/12/07 04:03:19;;;;;;;35.90;14.35;;;;;;;4.09;100.00;99108.94;5049203;28;20037;-85
2020/12/07 04:05:47;;;;;;;36.20;13.07;;;;;;;4.10;100.00;99096.47;5048163;28;20036;-84
2020/12/07 04:08:14;;;;;;;39.72;14.15;;;;;;;4.09;100.00;99097.47;5041610;28;20045;-83
2020/12/07 04:10:40;;;;;;;30.90;13.25;;;;;;;4.11;100.00;99100.78;5045643;28;20200;-84
2020/12/07 04:13:07;;;;;;;40.88;14.65;;;;;;;4.09;100.00;99090.34;5047774;28;20041;-85
2020/12/07 04:15:33;;;;;;;41.13;15.48;;;;;;;4.09;100.00;99086.88;5045111;28;20041;-83
2020/12/07 04:18:00;;;;;;;36.70;14.65;;;;;;;4.09;100.00;99100.97;5049172;28;20558;-86
2020/12/07 04:20:25;;;;;;;45.03;16.95;;;;;;;4.10;100.00;99117.72;5052511;28;20070;-84
2020/12/07 04:22:51;;;;;;;40.47;17.38;;;;;;;4.11;100.00;99124.66;5055303;28;20131;-84
2020/12/07 04:25:17;;;;;;;37.35;15.90;;;;;;;4.09;100.00;99124.03;5051647;28;20045;-82
2020/12/07 04:27:43;;;;;;;38.20;16.35;;;;;;;4.10;100.00;99115.88;5039637;28;20523;-83
2020/12/07 04:30:09;;;;;;;42.15;16.23;;;;;;;4.09;100.00;99113.41;5045990;28;20061;-85
2020/12/07 04:32:34;;;;;;;35.92;16.50;;;;;;;4.10;100.00;99125.69;5048273;28;20053;-84
2020/12/07 04:35:00;;;;;;;35.50;14.90;;;;;;;4.09;100.00;99124.03;5048721;28;20047;-85
2020/12/07 04:37:26;;;;;;;38.75;17.10;;;;;;;4.11;100.00;99116.72;5048722;28;20091;-85
2020/12/07 04:39:51;;;;;;;38.78;15.80;;;;;;;4.09;100.00;99116.88;5049613;28;20049;-84
2020/12/07 04:42:17;;;;;;;35.17;15.30;;;;;;;4.12;100.00;99127.19;5052448;28;20037;-84
2020/12/07 04:44:43;;;;;;;37.28;15.60;;;;;;;4.11;100.00;99122.03;5051152;28;20062;-85
2020/12/07 04:47:10;;;;;;;38.58;17.30;;;;;;;4.12;100.00;99113.09;5046332;28;20048;-84
2020/12/07 04:49:36;;;;;;;39.90;14.68;;;;;;;4.11;100.00;99112.22;5065046;28;20087;-84
2020/12/07 04:52:02;;;;;;;39.10;16.75;;;;;;;4.12;100.00;99105.94;5048316;28;20041;-84
2020/12/07 04:54:28;;;;;;;40.17;16.85;;;;;;;4.12;100.00;99100.63;5055047;28;20044;-83
2020/12/07 04:56:56;;;;;;;38.72;19.30;;;;;;;4.13;100.00;99094.31;5046158;28;20041;-84
2020/12/07 04:59:23;;;;;;;39.67;18.63;;;;;;;4.13;100.00;99093.50;5045529;28;20052;-83
2020/12/07 05:01:49;;;;;;;46.75;21.42;;;;;;;4.14;100.00;99095.13;5064245;28;20036;-83
2020/12/07 05:04:15;;;;;;;54.70;23.52;;;;;;;4.12;100.00;99097.97;5028916;28;20060;-84
2020/12/07 05:06:41;;;;;;;54.47;23.10;;;;;;;4.11;100.00;99090.97;5038223;28;20483;-84
2020/12/07 05:09:06;;;;;;;56.13;23.25;;;;;;;4.08;100.00;99083.34;5059906;28;20052;-84
2020/12/07 05:11:32;;;;;;;60.20;25.90;;;;;;;4.09;100.00;99090.34;5039530;28;20136;-85
2020/12/07 05:14:11;;;;;;;58.83;27.55;;;;;;;4.09;100.00;99087.69;5049658;28;20396;-84
2020/12/07 05:16:38;;;;;;;66.70;29.48;;;;;;;4.07;100.00;99089.66;5030988;28;20386;-84
2020/12/07 05:19:10;;;;;;;68.07;29.85;;;;;;;4.06;100.00;99098.63;5054710;28;20057;-85
2020/12/07 05:21:38;;;;;;;61.72;27.27;;;;;;;4.04;100.00;99111.22;5040391;28;20040;-83
2020/12/07 05:24:05;;;;;;;61.63;28.17;;;;;;;4.04;100.00;99114.72;5049554;28;20072;-84
2020/12/07 05:26:33;;;;;;;61.72;26.27;;;;;;;4.04;100.00;99125.34;5045318;28;20064;-84
2020/12/07 05:29:07;;;;;;;62.13;28.23;;;;;;;4.04;100.00;99119.19;5045481;28;20041;-85
2020/12/07 05:31:33;;;;;;;65.68;27.63;;;;;;;4.04;100.00;99111.22;5042957;28;20090;-83
2020/12/07 05:34:00;;;;;;;69.97;29.20;;;;;;;4.03;100.00;99115.72;5032410;28;20044;-83
2020/12/07 05:36:26;;;;;;;74.43;33.90;;;;;;;4.03;100.00;99107.75;5042182;28;20048;-83
2020/12/07 05:38:52;;;;;;;76.47;34.50;;;;;;;4.04;100.00;99100.63;5038370;28;20609;-83
2020/12/07 05:41:23;;;;;;;66.80;29.27;;;;;;;4.01;100.00;99091.16;5044192;28;20049;-83
2020/12/07 05:43:51;;;;;;;73.72;33.75;;;;;;;4.00;100.00;99078.03;5042809;28;20044;-83
2020/12/07 05:46:17;;;;;;;72.47;31.50;;;;;;;3.99;100.00;99109.06;5030946;28;20033;-86
2020/12/07 05:48:44;;;;;;;71.90;33.47;;;;;;;4.00;100.00;99109.88;5039288;28;20052;-84
2020/12/07 05:51:12;;;;;;;77.97;34.92;;;;;;;4.00;100.00;99101.91;5035621;28;20043;-83
2020/12/07 05:53:39;;;;;;;72.70;32.50;;;;;;;3.98;100.00;99102.09;5054408;28;20064;-83
2020/12/07 05:56:07;;;;;;;71.13;34.08;;;;;;;3.98;100.00;99107.41;5055836;28;20038;-83
2020/12/07 05:58:41;;;;;;;73.72;35.95;;;;;;;3.99;100.00;99113.53;5034623;28;20538;-82
2020/12/07 06:01:06;;;;;;;75.20;35.22;;;;;;;3.98;100.00;99122.50;5049344;28;20044;-84
2020/12/07 06:03:34;;;;;;;71.70;33.47;;;;;;;3.98;100.00;99122.50;5046948;28;20044;-83
2020/12/07 06:05:59;;;;;;;68.57;34.05;;;;;;;3.99;100.00;99134.78;5038262;28;20076;-84
2020/12/07 06:08:35;;;;;;;73.20;38.22;;;;;;;4.00;100.00;99136.41;5048750;28;20479;-83
2020/12/07 06:11:12;;;;;;;78.10;40.58;;;;;;;4.00;100.00;99133.78;5016175;28;20041;-84
2020/12/07 06:13:39;;;;;;;73.63;35.67;;;;;;;3.99;100.00;99134.78;5021267;28;20033;-84
2020/12/07 06:16:06;;;;;;;80.20;40.65;;;;;;;3.98;100.00;99122.50;5034859;28;20647;-84
2020/12/07 06:18:34;;;;;;;84.45;38.33;;;;;;;3.98;100.00;99107.41;5044912;28;20049;-83
2020/12/07 06:21:12;;;;;;;85.65;38.50;;;;;;;3.99;100.00;99105.56;5046397;28;20045;-85
2020/12/07 06:23:40;;;;;;;80.90;39.90;;;;;;;3.98;100.00;99098.63;5036248;28;20048;-84
2020/12/07 06:26:08;;;;;;;84.50;41.85;;;;;;;3.98;100.00;99102.09;5039125;28;20037;-83
2020/12/07 06:28:35;;;;;;;93.85;44.33;;;;;;;3.99;100.00;99109.06;5035162;28;20034;-83
2020/12/07 06:31:20;;;;;;;87.25;39.72;;;;;;;3.98;100.00;99106.56;5026829;28;20052;-86
2020/12/07 06:33:53;;;;;;;95.57;41.33;;;;;;;4.00;100.00;99117.84;5042188;28;20037;-84
2020/12/07 06:36:32;;;;;;;94.65;42.20;;;;;;;4.00;100.00;99128.47;5036377;28;20044;-87
2020/12/07 06:38:59;;;;;;;102.18;47.85;;;;;;;4.00;100.00;99125.81;5004213;28;20115;-82
2020/12/07 06:41:32;;;;;;;98.03;43.42;;;;;;;4.00;100.00;99115.19;4983446;28;20044;-85
2020/12/07 06:43:59;;;;;;;99.18;48.90;;;;;;;4.01;100.00;99117.69;5023247;28;20045;-83
2020/12/07 06:46:56;;;;;;;99.70;44.67;;;;;;;4.00;100.00;99117.84;5054590;28;20041;-85
2020/12/07 06:49:25;;;;;;;104.07;48.42;;;;;;;4.00;100.00;99109.88;5008456;28;20045;-84
2020/12/07 06:52:00;;;;;;;105.70;46.80;;;;;;;3.98;100.00;99102.09;5027830;28;20033;-84
2020/12/07 06:57:19;;;;;;;113.80;53.05;;;;;;;3.99;100.00;99108.22;5016465;28;20502;-84
2020/12/07 06:59:53;;;;;;;97.78;44.25;;;;;;;3.95;100.00;99122.84;5045555;28;20406;-84
2020/12/07 07:02:19;;;;;;;109.45;49.95;;;;;;;3.96;100.00;99137.75;5026894;28;20415;-85
2020/12/07 07:04:51;;;;;;;107.65;45.22;;;;;;;3.96;100.00;99124.47;5036486;28;20065;-83
2020/12/07 07:07:24;;;;;;;99.93;46.22;;;;;;;3.95;100.00;99128.97;5036017;28;20514;-84
2020/12/07 07:09:49;;;;;;;97.43;48.78;;;;;;;3.95;100.00;99131.63;5019800;28;20052;-84
2020/12/07 07:12:17;;;;;;;91.80;42.35;;;;;;;3.96;100.00;99135.09;5023983;28;20048;-83
2020/12/07 07:14:43;;;;;;;104.13;45.78;;;;;;;3.95;100.00;99125.50;5030483;28;20450;-83
2020/12/07 07:17:09;;;;;;;93.43;45.47;;;;;;;3.96;100.00;99132.44;5044851;28;20061;-85
2020/12/07 07:19:35;;;;;;;96.07;46.70;;;;;;;3.96;100.00;99137.75;5032095;28;20048;-86
2020/12/07 07:22:02;;;;;;;92.00;44.03;;;;;;;3.96;100.00;99132.44;5060247;28;20037;-86
2020/12/07 07:24:35;;;;;;;99.07;48.28;;;;;;;3.98;100.00;99135.78;5019237;28;20045;-85
2020/12/07 07:27:55;;;;;;;101.32;48.05;;;;;;;3.97;100.00;99137.59;5025441;28;20033;-84
2020/12/07 07:29:46;;;;;;;95.35;45.72;;;;;;;3.96;100.00;99148.38;5027432;28;20041;-86
2020/12/07 07:32:13;;;;;;;92.85;44.13;;;;;;;3.95;100.00;99155.50;5042520;28;20094;-86
2020/12/07 07:34:43;;;;;;;94.07;46.13;;;;;;;3.96;100.00;99153.69;5035343;28;20046;-85
2020/12/07 07:37:08;;;;;;;92.50;43.92;;;;;;;3.96;100.00;99157.16;5042374;28;20064;-84
2020/12/07 07:39:34;;;;;;;91.97;45.78;;;;;;;3.97;100.00;99155.31;5037877;28;20041;-85
2020/12/07 07:42:06;;;;;;;93.30;48.50;;;;;;;3.97;100.00;99157.97;5042526;28;20036;-85
2020/12/07 07:44:32;;;;;;;100.18;48.72;;;;;;;3.96;100.00;99157.16;5027575;28;20033;-86
2020/12/07 07:46:58;;;;;;;90.80;46.50;;;;;;;3.97;100.00;99160.63;5038815;28;20046;-84
2020/12/07 07:49:47;;;;;;;93.10;43.38;;;;;;;3.97;100.00;99158.84;5051536;28;20072;-83
2020/12/07 08:17:09;;;;;;;86.90;38.92;;;;;;;3.95;100.00;99191.84;4975386;28;20387;-84
2020/12/07 08:19:34;;;;;;;91.65;40.72;;;;;;;3.95;100.00;99179.41;5035611;28;20111;-86
2020/12/07 08:22:32;;;;;;;91.40;45.22;;;;;;;3.95;100.00;99190.00;5018363;28;20040;-85
2020/12/07 08:25:02;;;;;;;91.10;45.38;;;;;;;3.93;100.00;99185.84;4974974;28;20049;-83
2020/12/07 08:27:35;;;;;;;100.80;50.92;;;;;;;3.97;100.00;99184.53;5023704;28;20034;-85
2020/12/07 08:30:06;;;;;;;102.70;45.95;;;;;;;3.95;100.00;99189.19;5034882;28;20065;-87
2020/12/07 08:32:32;;;;;;;99.03;44.88;;;;;;;3.95;100.00;99194.50;5054368;28;20037;-84
2020/12/07 08:34:58;;;;;;;97.93;44.67;;;;;;;3.95;100.00;99194.50;5047880;28;20313;-85
2020/12/07 08:37:24;;;;;;;107.80;51.95;;;;;;;3.95;100.00;99197.97;5032889;28;20040;-86
2020/12/07 08:39:50;;;;;;;104.18;49.90;;;;;;;3.96;100.00;99198.78;5047327;28;20048;-84
2020/12/07 08:42:15;;;;;;;94.22;46.08;;;;;;;3.95;100.00;99207.75;5031576;28;20029;-86
2020/12/07 08:44:41;;;;;;;93.18;44.40;;;;;;;3.93;100.00;99209.72;5029999;28;20519;-85
2020/12/07 08:47:08;;;;;;;104.18;50.38;;;;;;;3.93;100.00;99209.72;5047672;28;20065;-83
2020/12/07 08:49:34;;;;;;;98.00;47.53;;;;;;;3.92;100.00;99205.44;5046985;28;20445;-84
2020/12/07 08:51:59;;;;;;;92.20;44.53;;;;;;;3.92;100.00;99208.09;5046636;28;20093;-84
2020/12/07 08:54:26;;;;;;;88.65;45.28;;;;;;;3.92;100.00;99218.69;5016329;28;20049;-88
2020/12/07 08:56:51;;;;;;;96.68;49.13;;;;;;;3.91;100.00;99217.00;5047492;28;20052;-82
2020/12/07 08:59:20;;;;;;;90.28;44.65;;;;;;;3.90;100.00;99215.38;5043439;28;20049;-84
2020/12/07 09:01:45;;;;;;;93.03;47.47;;;;;;;3.90;100.00;99224.16;5048307;28;20077;-85
2020/12/07 09:04:11;;;;;;;89.65;42.88;;;;;;;3.90;100.00;99218.03;5042638;28;20049;-85
2020/12/07 09:06:40;;;;;;;87.93;42.35;;;;;;;3.89;100.00;99219.84;5038190;28;20029;-87
2020/12/07 09:09:09;;;;;;;97.05;44.80;;;;;;;3.92;100.00;99213.41;5049270;28;20037;-86
2020/12/07 09:11:34;;;;;;;81.80;40.40;;;;;;;3.89;100.00;99219.84;5060327;28;20053;-86
2020/12/07 09:14:06;;;;;;;87.78;45.95;;;;;;;3.90;100.00;99212.72;5030125;28;20376;-83
2020/12/07 09:16:32;;;;;;;83.30;43.03;;;;;;;3.91;100.00;99219.69;5043951;28;20127;-85
2020/12/07 09:18:57;;;;;;;85.90;44.53;;;;;;;3.91;100.00;99212.53;5047051;28;20041;-84
2020/12/07 09:21:22;;;;;;;83.93;43.75;;;;;;;3.92;100.00;99226.66;5026447;28;20041;-86
2020/12/07 09:23:50;;;;;;;88.18;45.65;;;;;;;3.92;100.00;99218.69;5036528;28;20045;-82
2020/12/07 09:26:15;;;;;;;84.45;43.88;;;;;;;3.91;100.00;99219.69;5050659;28;20032;-86
2020/12/07 09:28:41;;;;;;;86.78;49.47;;;;;;;3.91;100.00;99224.97;5007762;28;20077;-85
2020/12/07 09:31:07;;;;;;;86.78;44.67;;;;;;;3.92;100.00;99235.44;5045571;28;20449;-86
2020/12/07 09:33:34;;;;;;;81.25;40.38;;;;;;;3.91;100.00;99238.25;5044067;28;20090;-82
2020/12/07 09:36:05;;;;;;;88.93;49.17;;;;;;;3.92;100.00;99234.63;5059197;28;20451;-86
2020/12/07 09:38:32;;;;;;;82.72;42.42;;;;;;;3.92;100.00;99230.16;5038064;28;20446;-85
2020/12/07 09:41:00;;;;;;;79.95;44.38;;;;;;;3.92;100.00;99240.75;5040613;28;20041;-86
2020/12/07 09:43:27;;;;;;;82.20;43.33;;;;;;;3.93;100.00;99247.72;5022643;28;20041;-88
2020/12/07 09:45:53;;;;;;;82.13;41.60;;;;;;;3.92;100.00;99251.38;5044043;28;20049;-85
2020/12/07 09:48:20;;;;;;;79.78;42.67;;;;;;;3.94;100.00;99251.19;5044290;28;20036;-83
2020/12/07 09:50:45;;;;;;;81.00;47.08;;;;;;;3.95;100.00;99252.88;5046934;28;20037;-85
2020/12/07 09:53:16;;;;;;;77.20;39.90;;;;;;;3.93;100.00;99253.03;5047831;28;20106;-85
2020/12/07 09:55:41;;;;;;;79.97;44.92;;;;;;;3.94;100.00;99254.72;5039106;28;20045;-83
2020/12/07 09:58:08;;;;;;;73.03;42.15;;;;;;;3.94;100.00;99260.03;5045853;28;20065;-86
2020/12/07 10:00:33;;;;;;;79.88;41.70;;;;;;;3.95;100.00;99266.16;5028702;28;20041;-85
2020/12/07 10:02:58;;;;;;;72.07;40.72;;;;;;;3.97;100.00;99262.34;5044005;28;20037;-83
2020/12/07 10:05:24;;;;;;;75.78;44.33;;;;;;;3.97;100.00;99266.81;5044989;28;20037;-85
2020/12/07 10:07:50;;;;;;;78.70;43.55;;;;;;;3.98;100.00;99269.31;5017188;28;20049;-85
2020/12/07 10:10:16;;;;;;;72.60;42.13;;;;;;;3.99;100.00;99273.63;5028323;28;20052;-84
2020/12/07 10:12:41;;;;;;;71.53;42.28;;;;;;;4.00;100.00;99270.00;5035859;28;20033;-87
2020/12/07 10:15:07;;;;;;;68.20;41.92;;;;;;;4.01;100.00;99279.63;5018972;28;20045;-86
2020/12/07 10:17:34;;;;;;;72.32;39.95;;;;;;;4.00;100.00;99271.78;5028486;28;20049;-85
2020/12/07 10:20:01;;;;;;;68.63;39.85;;;;;;;4.00;100.00;99274.44;5028846;28;20041;-85
2020/12/07 10:22:26;;;;;;;68.80;39.05;;;;;;;4.04;100.00;99275.81;5062552;28;20036;-83
2020/12/07 10:24:52;;;;;;;67.25;35.55;;;;;;;4.01;100.00;99271.66;5044483;28;20533;-83
2020/12/07 10:27:17;;;;;;;64.75;39.70;;;;;;;4.02;100.00;99275.13;5041285;28;20510;-86
2020/12/07 10:29:43;;;;;;;65.72;36.55;;;;;;;4.04;100.00;99283.78;5031023;28;20049;-85
2020/12/07 10:32:08;;;;;;;63.10;35.30;;;;;;;4.04;100.00;99297.03;5032668;28;20045;-85
2020/12/07 10:34:35;;;;;;;65.35;39.60;;;;;;;4.04;100.00;99291.75;5038583;28;20054;-85
2020/12/07 10:37:01;;;;;;;66.15;38.90;;;;;;;4.05;100.00;99291.56;5026602;28;20157;-84
2020/12/07 10:39:26;;;;;;;65.30;37.70;;;;;;;4.02;100.00;99286.56;5025953;28;20068;-85
2020/12/07 10:41:51;;;;;;;64.05;35.58;;;;;;;4.03;100.00;99295.41;5040816;28;20139;-82
2020/12/07 10:44:17;;;;;;;67.47;40.63;;;;;;;4.04;100.00;99300.53;5023450;28;20112;-86
2020/12/07 10:46:42;;;;;;;68.63;40.78;;;;;;;4.06;100.00;99303.88;5026705;28;20445;-85
2020/12/07 10:49:08;;;;;;;69.53;37.05;;;;;;;4.06;100.00;99314.47;5022831;28;20507;-83
2020/12/07 10:51:34;;;;;;;66.85;37.47;;;;;;;4.06;100.00;99311.00;5035270;28;20044;-84
2020/12/07 10:54:01;;;;;;;67.13;37.22;;;;;;;4.07;100.00;99313.47;5036648;28;20045;-86
2020/12/07 10:56:27;;;;;;;68.28;39.65;;;;;;;4.08;100.00;99311.66;5043859;28;20098;-84
2020/12/07 10:58:54;;;;;;;69.85;40.83;;;;;;;4.12;100.00;99313.03;5025437;28;20558;-87
2020/12/07 11:01:20;;;;;;;67.50;37.05;;;;;;;4.07;100.00;99313.47;5026085;28;20087;-83
2020/12/07 11:03:46;;;;;;;59.22;37.83;;;;;;;4.07;100.00;99318.78;5043424;28;20131;-84
2020/12/07 11:06:15;;;;;;;66.55;38.10;;;;;;;4.04;100.00;99323.59;5012703;28;20037;-84
2020/12/07 11:08:53;;;;;;;66.18;39.33;;;;;;;4.01;100.00;99329.22;5044456;28;20092;-84
2020/12/07 11:11:20;;;;;;;66.97;39.65;;;;;;;4.01;100.00;99337.19;5048035;28;20040;-87
2020/12/07 11:13:46;;;;;;;69.07;42.30;;;;;;;4.00;100.00;99327.53;5043486;28;20487;-86
2020/12/07 11:16:13;;;;;;;68.32;39.20;;;;;;;3.97;100.00;99335.81;5063150;28;20076;-84
2020/12/07 11:18:39;;;;;;;72.15;42.97;;;;;;;3.99;100.00;99339.16;5045404;28;20568;-84
2020/12/07 11:21:15;;;;;;;74.82;43.67;;;;;;;3.97;100.00;99336.69;5049083;28;20088;-86
2020/12/07 11:23:47;;;;;;;67.35;37.67;;;;;;;3.93;100.00;99337.97;5017916;28;21513;-85
2020/12/07 11:26:17;;;;;;;66.47;39.65;;;;;;;3.92;100.00;99332.81;5052613;28;20048;-84
2020/12/07 11:28:45;;;;;;;70.18;38.50;;;;;;;3.89;100.00;99341.09;5029514;28;20045;-85
2020/12/07 11:31:12;;;;;;;73.18;42.28;;;;;;;3.93;100.00;99339.78;5037822;28;20407;-85
2020/12/07 11:33:38;;;;;;;70.95;37.15;;;;;;;3.90;100.00;99342.75;5027429;28;20051;-86
2020/12/07 11:36:04;;;;;;;78.07;45.35;;;;;;;3.90;100.00;99340.09;5023776;28;20558;-84
2020/12/07 11:38:35;;;;;;;76.53;41.08;;;;;;;3.91;100.00;99336.44;5039162;28;20079;-86
2020/12/07 11:43:52;;;;;;;68.90;40.17;;;;;;;3.88;100.00;99344.72;5042693;28;20033;-86
2020/12/07 11:46:30;;;;;;;76.35;38.85;;;;;;;3.84;100.00;99350.34;5034238;28;20403;-85
2020/12/07 11:48:56;;;;;;;76.13;41.30;;;;;;;3.81;100.00;99337.41;5059837;28;20110;-85